sensor_id;sensor_type;location;lat;lon;timestamp;temperature;humidity
32600;DHT22;19277;51.778;7.912;2023-06-22T00:01:28;25.20;68.40
32600;DHT22;19277;51.778;7.912;2023-06-22T00:03:53;25.20;68.40
32600;DHT22;19277;51.778;7.912;2023-06-22T00:06:19;25.20;68.30
32600;DHT22;19277;51.778;7.912;2023-06-22T00:08:45;25.20;68.40
32600;DHT22;19277;51.778;7.912;2023-06-22T00:11:10;25.20;68.20
32600;DHT22;19277;51.778;7.912;2023-06-22T00:13:36;25.10;68.30
32600;DHT22;19277;51.778;7.912;2023-06-22T00:16:01;25.00;68.80
32600;DHT22;19277;51.778;7.912;2023-06-22T00:18:27;24.90;68.90
32600;DHT22;19277;51.778;7.912;2023-06-22T00:20:55;25.00;69.00
32600;DHT22;19277;51.778;7.912;2023-06-22T00:23:23;25.00;68.90
32600;DHT22;19277;51.778;7.912;2023-06-22T00:25:49;24.90;68.90
32600;DHT22;19277;51.778;7.912;2023-06-22T00:28:15;24.80;69.30
32600;DHT22;19277;51.778;7.912;2023-06-22T00:30:41;24.70;70.10
32600;DHT22;19277;51.778;7.912;2023-06-22T00:33:06;24.70;70.00
32600;DHT22;19277;51.778;7.912;2023-06-22T00:35:33;24.70;69.70
32600;DHT22;19277;51.778;7.912;2023-06-22T00:37:59;24.70;69.60
32600;DHT22;19277;51.778;7.912;2023-06-22T00:40:27;24.70;69.90
32600;DHT22;19277;51.778;7.912;2023-06-22T00:42:53;24.50;70.10
32600;DHT22;19277;51.778;7.912;2023-06-22T00:45:19;24.50;70.30
32600;DHT22;19277;51.778;7.912;2023-06-22T00:47:45;24.70;70.10
32600;DHT22;19277;51.778;7.912;2023-06-22T00:50:14;24.80;69.80
32600;DHT22;19277;51.778;7.912;2023-06-22T00:52:43;24.80;69.60
32600;DHT22;19277;51.778;7.912;2023-06-22T00:55:11;24.90;69.70
32600;DHT22;19277;51.778;7.912;2023-06-22T00:57:37;24.90;69.50
32600;DHT22;19277;51.778;7.912;2023-06-22T01:00:03;24.90;69.20
32600;DHT22;19277;51.778;7.912;2023-06-22T01:02:33;24.90;69.10
32600;DHT22;19277;51.778;7.912;2023-06-22T01:04:59;25.00;69.80
32600;DHT22;19277;51.778;7.912;2023-06-22T01:10:08;25.00;68.90
32600;DHT22;19277;51.778;7.912;2023-06-22T01:12:39;25.00;68.90
32600;DHT22;19277;51.778;7.912;2023-06-22T01:15:11;25.10;69.00
32600;DHT22;19277;51.778;7.912;2023-06-22T01:17:40;25.10;69.00
32600;DHT22;19277;51.778;7.912;2023-06-22T01:20:09;25.10;68.90
32600;DHT22;19277;51.778;7.912;2023-06-22T01:23:06;25.10;68.90
32600;DHT22;19277;51.778;7.912;2023-06-22T01:25:43;25.10;68.90
32600;DHT22;19277;51.778;7.912;2023-06-22T01:30:43;25.20;68.90
32600;DHT22;19277;51.778;7.912;2023-06-22T01:33:11;25.20;68.90
32600;DHT22;19277;51.778;7.912;2023-06-22T01:35:39;25.10;68.90
32600;DHT22;19277;51.778;7.912;2023-06-22T01:38:05;25.10;69.20
32600;DHT22;19277;51.778;7.912;2023-06-22T01:40:33;25.00;69.20
32600;DHT22;19277;51.778;7.912;2023-06-22T01:43:01;24.90;69.50
32600;DHT22;19277;51.778;7.912;2023-06-22T01:45:27;24.90;69.80
32600;DHT22;19277;51.778;7.912;2023-06-22T01:47:54;24.80;69.90
32600;DHT22;19277;51.778;7.912;2023-06-22T01:50:20;24.80;69.90
32600;DHT22;19277;51.778;7.912;2023-06-22T01:52:46;24.80;70.00
32600;DHT22;19277;51.778;7.912;2023-06-22T01:55:12;24.70;70.30
32600;DHT22;19277;51.778;7.912;2023-06-22T01:57:38;24.60;71.20
32600;DHT22;19277;51.778;7.912;2023-06-22T02:00:09;24.50;70.90
32600;DHT22;19277;51.778;7.912;2023-06-22T02:02:46;24.40;71.10
32600;DHT22;19277;51.778;7.912;2023-06-22T02:05:16;24.40;71.20
32600;DHT22;19277;51.778;7.912;2023-06-22T02:07:52;24.50;71.20
32600;DHT22;19277;51.778;7.912;2023-06-22T02:10:20;24.50;71.10
32600;DHT22;19277;51.778;7.912;2023-06-22T02:12:48;24.50;71.10
32600;DHT22;19277;51.778;7.912;2023-06-22T02:15:15;24.50;71.00
32600;DHT22;19277;51.778;7.912;2023-06-22T02:17:42;24.50;70.90
32600;DHT22;19277;51.778;7.912;2023-06-22T02:20:13;24.50;71.00
32600;DHT22;19277;51.778;7.912;2023-06-22T02:22:38;24.50;71.00
32600;DHT22;19277;51.778;7.912;2023-06-22T02:25:04;24.50;71.20
32600;DHT22;19277;51.778;7.912;2023-06-22T02:27:30;24.20;72.00
32600;DHT22;19277;51.778;7.912;2023-06-22T02:29:55;23.90;72.80
32600;DHT22;19277;51.778;7.912;2023-06-22T02:32:21;23.80;73.30
32600;DHT22;19277;51.778;7.912;2023-06-22T02:34:46;23.80;73.50
32600;DHT22;19277;51.778;7.912;2023-06-22T02:37:13;23.80;73.60
32600;DHT22;19277;51.778;7.912;2023-06-22T02:39:40;23.80;73.50
32600;DHT22;19277;51.778;7.912;2023-06-22T02:42:06;23.80;73.70
32600;DHT22;19277;51.778;7.912;2023-06-22T02:44:31;23.80;73.40
32600;DHT22;19277;51.778;7.912;2023-06-22T02:46:58;23.80;73.10
32600;DHT22;19277;51.778;7.912;2023-06-22T02:49:24;23.60;73.90
32600;DHT22;19277;51.778;7.912;2023-06-22T02:51:49;23.60;74.10
32600;DHT22;19277;51.778;7.912;2023-06-22T02:54:15;23.70;74.00
32600;DHT22;19277;51.778;7.912;2023-06-22T02:56:41;23.80;73.60
32600;DHT22;19277;51.778;7.912;2023-06-22T02:59:09;23.80;73.50
32600;DHT22;19277;51.778;7.912;2023-06-22T03:01:36;23.80;73.30
32600;DHT22;19277;51.778;7.912;2023-06-22T03:04:06;23.70;73.90
32600;DHT22;19277;51.778;7.912;2023-06-22T03:06:33;23.60;74.00
32600;DHT22;19277;51.778;7.912;2023-06-22T03:09:05;23.60;73.90
32600;DHT22;19277;51.778;7.912;2023-06-22T03:11:31;23.70;74.00
32600;DHT22;19277;51.778;7.912;2023-06-22T03:13:57;23.70;73.70
32600;DHT22;19277;51.778;7.912;2023-06-22T03:16:23;23.80;73.50
32600;DHT22;19277;51.778;7.912;2023-06-22T03:18:48;23.60;73.90
32600;DHT22;19277;51.778;7.912;2023-06-22T03:21:14;23.60;74.10
32600;DHT22;19277;51.778;7.912;2023-06-22T03:23:41;23.50;74.00
32600;DHT22;19277;51.778;7.912;2023-06-22T03:26:08;23.70;73.90
32600;DHT22;19277;51.778;7.912;2023-06-22T03:28:33;23.70;73.70
32600;DHT22;19277;51.778;7.912;2023-06-22T03:30:59;23.70;73.60
32600;DHT22;19277;51.778;7.912;2023-06-22T03:33:24;23.80;73.60
32600;DHT22;19277;51.778;7.912;2023-06-22T03:35:50;23.70;73.70
32600;DHT22;19277;51.778;7.912;2023-06-22T03:38:18;23.50;74.40
32600;DHT22;19277;51.778;7.912;2023-06-22T03:40:44;23.30;74.90
32600;DHT22;19277;51.778;7.912;2023-06-22T03:43:10;23.20;75.30
32600;DHT22;19277;51.778;7.912;2023-06-22T03:45:35;23.20;75.50
32600;DHT22;19277;51.778;7.912;2023-06-22T03:48:01;23.20;76.20
32600;DHT22;19277;51.778;7.912;2023-06-22T03:50:27;23.20;75.70
32600;DHT22;19277;51.778;7.912;2023-06-22T03:52:52;23.30;75.60
32600;DHT22;19277;51.778;7.912;2023-06-22T03:55:20;23.30;75.40
32600;DHT22;19277;51.778;7.912;2023-06-22T03:57:45;23.30;75.60
32600;DHT22;19277;51.778;7.912;2023-06-22T04:00:11;23.30;75.60
32600;DHT22;19277;51.778;7.912;2023-06-22T04:02:38;23.40;75.50
32600;DHT22;19277;51.778;7.912;2023-06-22T04:05:04;23.40;75.50
32600;DHT22;19277;51.778;7.912;2023-06-22T04:07:30;23.40;75.50
32600;DHT22;19277;51.778;7.912;2023-06-22T04:09:55;23.40;75.70
32600;DHT22;19277;51.778;7.912;2023-06-22T04:12:21;23.30;75.80
32600;DHT22;19277;51.778;7.912;2023-06-22T04:14:46;23.20;76.50
32600;DHT22;19277;51.778;7.912;2023-06-22T04:17:12;23.20;76.50
32600;DHT22;19277;51.778;7.912;2023-06-22T04:19:39;23.20;76.80
32600;DHT22;19277;51.778;7.912;2023-06-22T04:22:05;23.20;77.20
32600;DHT22;19277;51.778;7.912;2023-06-22T04:24:33;23.00;77.70
32600;DHT22;19277;51.778;7.912;2023-06-22T04:26:58;23.00;77.60
32600;DHT22;19277;51.778;7.912;2023-06-22T04:29:31;23.20;77.50
32600;DHT22;19277;51.778;7.912;2023-06-22T04:31:57;23.30;77.30
32600;DHT22;19277;51.778;7.912;2023-06-22T04:34:29;23.40;77.20
32600;DHT22;19277;51.778;7.912;2023-06-22T04:36:55;23.40;77.30
32600;DHT22;19277;51.778;7.912;2023-06-22T04:39:21;23.40;77.70
32600;DHT22;19277;51.778;7.912;2023-06-22T04:41:47;23.40;77.60
32600;DHT22;19277;51.778;7.912;2023-06-22T04:44:17;23.50;77.50
32600;DHT22;19277;51.778;7.912;2023-06-22T04:46:50;23.60;77.40
32600;DHT22;19277;51.778;7.912;2023-06-22T04:49:20;23.80;77.20
32600;DHT22;19277;51.778;7.912;2023-06-22T04:51:46;23.90;77.10
32600;DHT22;19277;51.778;7.912;2023-06-22T04:54:11;23.90;76.90
32600;DHT22;19277;51.778;7.912;2023-06-22T04:56:37;24.00;76.80
32600;DHT22;19277;51.778;7.912;2023-06-22T04:59:03;24.10;76.80
32600;DHT22;19277;51.778;7.912;2023-06-22T05:01:29;24.10;77.00
32600;DHT22;19277;51.778;7.912;2023-06-22T05:03:57;24.20;77.10
32600;DHT22;19277;51.778;7.912;2023-06-22T05:06:26;24.20;77.20
32600;DHT22;19277;51.778;7.912;2023-06-22T05:08:56;24.20;77.10
32600;DHT22;19277;51.778;7.912;2023-06-22T05:11:28;24.20;77.00
32600;DHT22;19277;51.778;7.912;2023-06-22T05:13:54;24.30;77.10
32600;DHT22;19277;51.778;7.912;2023-06-22T05:16:20;24.30;77.00
32600;DHT22;19277;51.778;7.912;2023-06-22T05:18:50;24.30;77.30
32600;DHT22;19277;51.778;7.912;2023-06-22T05:21:16;24.30;77.30
32600;DHT22;19277;51.778;7.912;2023-06-22T05:23:42;24.40;77.60
32600;DHT22;19277;51.778;7.912;2023-06-22T05:26:07;24.30;77.70
32600;DHT22;19277;51.778;7.912;2023-06-22T05:28:34;24.30;77.80
32600;DHT22;19277;51.778;7.912;2023-06-22T05:31:00;24.20;77.80
32600;DHT22;19277;51.778;7.912;2023-06-22T05:33:26;24.40;77.80
32600;DHT22;19277;51.778;7.912;2023-06-22T05:35:51;24.40;78.00
32600;DHT22;19277;51.778;7.912;2023-06-22T05:38:17;24.40;78.20
32600;DHT22;19277;51.778;7.912;2023-06-22T05:40:42;24.30;78.30
32600;DHT22;19277;51.778;7.912;2023-06-22T05:43:08;24.30;78.40
32600;DHT22;19277;51.778;7.912;2023-06-22T05:45:33;24.20;78.70
32600;DHT22;19277;51.778;7.912;2023-06-22T05:47:59;24.20;78.80
32600;DHT22;19277;51.778;7.912;2023-06-22T05:50:25;24.10;78.70
32600;DHT22;19277;51.778;7.912;2023-06-22T05:52:50;24.20;78.50
32600;DHT22;19277;51.778;7.912;2023-06-22T05:55:16;24.10;78.80
32600;DHT22;19277;51.778;7.912;2023-06-22T05:57:44;24.10;79.00
32600;DHT22;19277;51.778;7.912;2023-06-22T06:00:10;24.10;79.20
32600;DHT22;19277;51.778;7.912;2023-06-22T06:02:37;24.10;79.00
32600;DHT22;19277;51.778;7.912;2023-06-22T06:05:03;24.20;79.00
32600;DHT22;19277;51.778;7.912;2023-06-22T06:07:28;24.20;79.10
32600;DHT22;19277;51.778;7.912;2023-06-22T06:09:55;24.20;78.80
32600;DHT22;19277;51.778;7.912;2023-06-22T06:12:20;24.20;78.80
32600;DHT22;19277;51.778;7.912;2023-06-22T06:14:46;24.30;78.80
32600;DHT22;19277;51.778;7.912;2023-06-22T06:17:12;24.30;79.10
32600;DHT22;19277;51.778;7.912;2023-06-22T06:19:38;24.30;78.60
32600;DHT22;19277;51.778;7.912;2023-06-22T06:22:04;24.30;78.50
32600;DHT22;19277;51.778;7.912;2023-06-22T06:24:30;24.40;78.80
32600;DHT22;19277;51.778;7.912;2023-06-22T06:26:56;24.30;79.00
32600;DHT22;19277;51.778;7.912;2023-06-22T06:29:22;24.30;79.30
32600;DHT22;19277;51.778;7.912;2023-06-22T06:31:49;24.20;79.20
32600;DHT22;19277;51.778;7.912;2023-06-22T06:34:14;24.20;79.30
32600;DHT22;19277;51.778;7.912;2023-06-22T06:36:40;24.20;79.20
32600;DHT22;19277;51.778;7.912;2023-06-22T06:39:05;24.30;79.50
32600;DHT22;19277;51.778;7.912;2023-06-22T06:41:31;24.30;78.70
32600;DHT22;19277;51.778;7.912;2023-06-22T06:43:56;24.50;78.70
32600;DHT22;19277;51.778;7.912;2023-06-22T06:46:22;24.50;78.10
32600;DHT22;19277;51.778;7.912;2023-06-22T06:48:48;24.60;79.20
32600;DHT22;19277;51.778;7.912;2023-06-22T06:51:13;24.60;79.40
32600;DHT22;19277;51.778;7.912;2023-06-22T06:53:39;24.50;79.40
32600;DHT22;19277;51.778;7.912;2023-06-22T06:56:05;24.60;79.40
32600;DHT22;19277;51.778;7.912;2023-06-22T06:58:31;24.60;79.20
32600;DHT22;19277;51.778;7.912;2023-06-22T07:00:56;24.60;79.50
32600;DHT22;19277;51.778;7.912;2023-06-22T07:03:22;24.50;79.70
32600;DHT22;19277;51.778;7.912;2023-06-22T07:05:48;24.50;80.20
32600;DHT22;19277;51.778;7.912;2023-06-22T07:08:13;24.40;80.90
32600;DHT22;19277;51.778;7.912;2023-06-22T07:10:39;24.30;81.30
32600;DHT22;19277;51.778;7.912;2023-06-22T07:13:04;24.20;81.20
32600;DHT22;19277;51.778;7.912;2023-06-22T07:15:30;24.20;82.30
32600;DHT22;19277;51.778;7.912;2023-06-22T07:17:55;24.20;81.80
32600;DHT22;19277;51.778;7.912;2023-06-22T07:20:21;24.20;82.20
32600;DHT22;19277;51.778;7.912;2023-06-22T07:22:46;24.20;82.20
32600;DHT22;19277;51.778;7.912;2023-06-22T07:25:12;24.10;82.90
32600;DHT22;19277;51.778;7.912;2023-06-22T07:28:01;24.10;82.90
32600;DHT22;19277;51.778;7.912;2023-06-22T07:30:28;24.20;83.00
32600;DHT22;19277;51.778;7.912;2023-06-22T07:32:53;24.30;83.30
32600;DHT22;19277;51.778;7.912;2023-06-22T07:35:19;24.30;82.70
32600;DHT22;19277;51.778;7.912;2023-06-22T07:37:45;24.30;83.00
32600;DHT22;19277;51.778;7.912;2023-06-22T07:40:11;24.30;83.30
32600;DHT22;19277;51.778;7.912;2023-06-22T07:42:37;24.30;83.40
32600;DHT22;19277;51.778;7.912;2023-06-22T07:45:03;24.30;83.90
32600;DHT22;19277;51.778;7.912;2023-06-22T07:47:29;24.40;83.80
32600;DHT22;19277;51.778;7.912;2023-06-22T07:49:55;24.40;83.40
32600;DHT22;19277;51.778;7.912;2023-06-22T07:52:24;24.40;83.70
32600;DHT22;19277;51.778;7.912;2023-06-22T07:54:50;24.40;83.70
32600;DHT22;19277;51.778;7.912;2023-06-22T07:57:15;24.50;83.40
32600;DHT22;19277;51.778;7.912;2023-06-22T07:59:41;24.70;82.90
32600;DHT22;19277;51.778;7.912;2023-06-22T08:02:06;24.80;82.40
32600;DHT22;19277;51.778;7.912;2023-06-22T08:04:33;24.90;82.50
32600;DHT22;19277;51.778;7.912;2023-06-22T08:07:00;25.00;82.30
32600;DHT22;19277;51.778;7.912;2023-06-22T08:09:28;25.00;82.30
32600;DHT22;19277;51.778;7.912;2023-06-22T08:11:54;25.00;82.10
32600;DHT22;19277;51.778;7.912;2023-06-22T08:14:22;25.00;82.20
32600;DHT22;19277;51.778;7.912;2023-06-22T08:16:47;25.00;82.80
32600;DHT22;19277;51.778;7.912;2023-06-22T08:19:13;24.90;82.80
32600;DHT22;19277;51.778;7.912;2023-06-22T08:21:38;24.90;83.10
32600;DHT22;19277;51.778;7.912;2023-06-22T08:24:04;24.90;83.50
32600;DHT22;19277;51.778;7.912;2023-06-22T08:26:30;24.90;83.50
32600;DHT22;19277;51.778;7.912;2023-06-22T08:28:55;25.00;83.10
32600;DHT22;19277;51.778;7.912;2023-06-22T08:31:21;25.00;83.40
32600;DHT22;19277;51.778;7.912;2023-06-22T08:33:46;25.00;83.50
32600;DHT22;19277;51.778;7.912;2023-06-22T08:36:12;25.10;83.50
32600;DHT22;19277;51.778;7.912;2023-06-22T08:38:39;25.30;82.70
32600;DHT22;19277;51.778;7.912;2023-06-22T08:41:04;25.60;82.10
32600;DHT22;19277;51.778;7.912;2023-06-22T08:43:30;25.70;81.30
32600;DHT22;19277;51.778;7.912;2023-06-22T08:45:55;26.00;80.80
32600;DHT22;19277;51.778;7.912;2023-06-22T08:48:21;26.10;80.30
32600;DHT22;19277;51.778;7.912;2023-06-22T08:50:47;26.20;79.80
32600;DHT22;19277;51.778;7.912;2023-06-22T08:53:12;26.20;79.40
32600;DHT22;19277;51.778;7.912;2023-06-22T08:55:38;26.30;79.20
32600;DHT22;19277;51.778;7.912;2023-06-22T08:58:03;26.40;79.00
32600;DHT22;19277;51.778;7.912;2023-06-22T09:00:29;26.50;78.80
32600;DHT22;19277;51.778;7.912;2023-06-22T09:02:58;26.50;78.40
32600;DHT22;19277;51.778;7.912;2023-06-22T09:05:24;26.60;78.40
32600;DHT22;19277;51.778;7.912;2023-06-22T09:07:51;26.70;78.30
32600;DHT22;19277;51.778;7.912;2023-06-22T09:10:17;26.60;78.10
32600;DHT22;19277;51.778;7.912;2023-06-22T09:12:43;26.70;77.90
32600;DHT22;19277;51.778;7.912;2023-06-22T09:15:09;26.80;77.70
32600;DHT22;19277;51.778;7.912;2023-06-22T09:17:35;26.80;77.50
32600;DHT22;19277;51.778;7.912;2023-06-22T09:20:02;26.80;77.40
32600;DHT22;19277;51.778;7.912;2023-06-22T09:22:31;26.90;77.20
32600;DHT22;19277;51.778;7.912;2023-06-22T09:24:57;26.90;77.00
32600;DHT22;19277;51.778;7.912;2023-06-22T09:27:23;27.00;76.90
32600;DHT22;19277;51.778;7.912;2023-06-22T09:29:49;27.00;76.80
32600;DHT22;19277;51.778;7.912;2023-06-22T09:32:15;27.10;76.80
32600;DHT22;19277;51.778;7.912;2023-06-22T09:34:40;27.10;76.70
32600;DHT22;19277;51.778;7.912;2023-06-22T09:37:06;27.10;76.70
32600;DHT22;19277;51.778;7.912;2023-06-22T09:39:32;27.10;76.70
32600;DHT22;19277;51.778;7.912;2023-06-22T09:41:59;27.20;76.60
32600;DHT22;19277;51.778;7.912;2023-06-22T09:44:25;27.20;76.50
32600;DHT22;19277;51.778;7.912;2023-06-22T09:46:51;27.20;76.40
32600;DHT22;19277;51.778;7.912;2023-06-22T09:49:17;27.20;76.10
32600;DHT22;19277;51.778;7.912;2023-06-22T09:51:42;27.30;76.30
32600;DHT22;19277;51.778;7.912;2023-06-22T09:54:08;27.30;76.30
32600;DHT22;19277;51.778;7.912;2023-06-22T09:56:33;27.30;76.20
32600;DHT22;19277;51.778;7.912;2023-06-22T09:58:59;27.30;76.20
32600;DHT22;19277;51.778;7.912;2023-06-22T10:01:24;27.30;76.20
32600;DHT22;19277;51.778;7.912;2023-06-22T10:03:52;27.30;76.20
32600;DHT22;19277;51.778;7.912;2023-06-22T10:06:21;27.30;76.30
32600;DHT22;19277;51.778;7.912;2023-06-22T10:08:46;27.30;76.40
32600;DHT22;19277;51.778;7.912;2023-06-22T10:11:13;27.30;76.50
32600;DHT22;19277;51.778;7.912;2023-06-22T10:13:39;27.40;76.50
32600;DHT22;19277;51.778;7.912;2023-06-22T10:16:04;27.40;76.40
32600;DHT22;19277;51.778;7.912;2023-06-22T10:18:30;27.40;76.40
32600;DHT22;19277;51.778;7.912;2023-06-22T10:20:56;27.40;76.30
32600;DHT22;19277;51.778;7.912;2023-06-22T10:23:21;27.50;76.10
32600;DHT22;19277;51.778;7.912;2023-06-22T10:25:47;27.50;75.90
32600;DHT22;19277;51.778;7.912;2023-06-22T10:28:13;27.50;75.70
32600;DHT22;19277;51.778;7.912;2023-06-22T10:30:39;27.50;75.60
32600;DHT22;19277;51.778;7.912;2023-06-22T10:33:09;27.50;75.50
32600;DHT22;19277;51.778;7.912;2023-06-22T10:35:35;27.50;75.90
32600;DHT22;19277;51.778;7.912;2023-06-22T10:38:03;27.50;76.20
32600;DHT22;19277;51.778;7.912;2023-06-22T10:40:28;27.50;76.30
32600;DHT22;19277;51.778;7.912;2023-06-22T10:42:54;27.50;76.40
32600;DHT22;19277;51.778;7.912;2023-06-22T10:45:19;27.50;76.50
32600;DHT22;19277;51.778;7.912;2023-06-22T10:47:45;27.50;76.70
32600;DHT22;19277;51.778;7.912;2023-06-22T10:50:11;27.50;76.80
32600;DHT22;19277;51.778;7.912;2023-06-22T10:52:37;27.50;76.70
32600;DHT22;19277;51.778;7.912;2023-06-22T10:55:03;27.50;76.80
32600;DHT22;19277;51.778;7.912;2023-06-22T10:57:29;27.50;76.70
32600;DHT22;19277;51.778;7.912;2023-06-22T10:59:55;27.50;76.70
32600;DHT22;19277;51.778;7.912;2023-06-22T11:02:20;27.60;76.80
32600;DHT22;19277;51.778;7.912;2023-06-22T11:04:46;27.60;76.80
32600;DHT22;19277;51.778;7.912;2023-06-22T11:07:12;27.60;76.90
32600;DHT22;19277;51.778;7.912;2023-06-22T11:09:38;27.60;76.90
32600;DHT22;19277;51.778;7.912;2023-06-22T11:12:05;27.60;77.00
32600;DHT22;19277;51.778;7.912;2023-06-22T11:14:31;27.60;77.00
32600;DHT22;19277;51.778;7.912;2023-06-22T11:16:56;27.50;75.00
32600;DHT22;19277;51.778;7.912;2023-06-22T11:19:22;27.40;74.50
32600;DHT22;19277;51.778;7.912;2023-06-22T11:21:48;27.30;75.70
32600;DHT22;19277;51.778;7.912;2023-06-22T11:24:13;27.20;74.30
32600;DHT22;19277;51.778;7.912;2023-06-22T11:26:39;27.10;73.80
32600;DHT22;19277;51.778;7.912;2023-06-22T11:29:04;27.00;74.80
32600;DHT22;19277;51.778;7.912;2023-06-22T11:31:31;27.00;76.30
32600;DHT22;19277;51.778;7.912;2023-06-22T11:33:57;27.00;76.50
32600;DHT22;19277;51.778;7.912;2023-06-22T11:36:23;27.00;77.10
32600;DHT22;19277;51.778;7.912;2023-06-22T11:38:49;27.00;76.60
32600;DHT22;19277;51.778;7.912;2023-06-22T11:41:14;27.00;76.60
32600;DHT22;19277;51.778;7.912;2023-06-22T11:43:40;27.00;76.00
32600;DHT22;19277;51.778;7.912;2023-06-22T11:46:05;27.00;75.70
32600;DHT22;19277;51.778;7.912;2023-06-22T11:48:31;26.90;74.60
32600;DHT22;19277;51.778;7.912;2023-06-22T11:50:56;26.90;74.90
32600;DHT22;19277;51.778;7.912;2023-06-22T11:53:24;26.80;73.80
32600;DHT22;19277;51.778;7.912;2023-06-22T11:55:50;26.70;74.80
32600;DHT22;19277;51.778;7.912;2023-06-22T11:58:16;26.70;75.00
32600;DHT22;19277;51.778;7.912;2023-06-22T12:00:42;26.70;75.60
32600;DHT22;19277;51.778;7.912;2023-06-22T12:03:08;26.60;76.00
32600;DHT22;19277;51.778;7.912;2023-06-22T12:05:34;26.50;78.00
32600;DHT22;19277;51.778;7.912;2023-06-22T12:08:00;26.50;78.60
32600;DHT22;19277;51.778;7.912;2023-06-22T12:10:26;26.40;81.20
32600;DHT22;19277;51.778;7.912;2023-06-22T12:12:54;26.20;81.60
32600;DHT22;19277;51.778;7.912;2023-06-22T12:15:19;26.10;82.50
32600;DHT22;19277;51.778;7.912;2023-06-22T12:17:45;26.00;83.60
32600;DHT22;19277;51.778;7.912;2023-06-22T12:20:11;25.90;85.50
32600;DHT22;19277;51.778;7.912;2023-06-22T12:22:36;25.70;86.10
32600;DHT22;19277;51.778;7.912;2023-06-22T12:25:03;25.50;88.00
32600;DHT22;19277;51.778;7.912;2023-06-22T12:27:29;25.30;90.00
32600;DHT22;19277;51.778;7.912;2023-06-22T12:29:56;25.30;91.10
32600;DHT22;19277;51.778;7.912;2023-06-22T12:32:22;25.10;91.60
32600;DHT22;19277;51.778;7.912;2023-06-22T12:34:47;24.90;93.00
32600;DHT22;19277;51.778;7.912;2023-06-22T12:37:13;24.70;95.20
32600;DHT22;19277;51.778;7.912;2023-06-22T12:39:40;24.60;97.00
32600;DHT22;19277;51.778;7.912;2023-06-22T12:42:07;24.50;99.10
32600;DHT22;19277;51.778;7.912;2023-06-22T12:44:34;24.50;98.60
32600;DHT22;19277;51.778;7.912;2023-06-22T12:47:00;24.60;98.40
32600;DHT22;19277;51.778;7.912;2023-06-22T12:49:25;24.60;98.30
32600;DHT22;19277;51.778;7.912;2023-06-22T12:51:51;24.70;97.40
32600;DHT22;19277;51.778;7.912;2023-06-22T12:54:16;24.80;97.30
32600;DHT22;19277;51.778;7.912;2023-06-22T12:56:43;24.80;97.90
32600;DHT22;19277;51.778;7.912;2023-06-22T12:59:10;24.70;97.90
32600;DHT22;19277;51.778;7.912;2023-06-22T13:01:36;24.70;98.30
32600;DHT22;19277;51.778;7.912;2023-06-22T13:04:03;24.60;99.60
32600;DHT22;19277;51.778;7.912;2023-06-22T13:06:29;24.50;99.90
32600;DHT22;19277;51.778;7.912;2023-06-22T13:08:54;24.50;99.90
32600;DHT22;19277;51.778;7.912;2023-06-22T13:11:20;24.50;99.90
32600;DHT22;19277;51.778;7.912;2023-06-22T13:13:46;24.40;99.90
32600;DHT22;19277;51.778;7.912;2023-06-22T13:16:12;24.40;98.80
32600;DHT22;19277;51.778;7.912;2023-06-22T13:18:38;24.70;97.00
32600;DHT22;19277;51.778;7.912;2023-06-22T13:21:04;24.90;96.40
32600;DHT22;19277;51.778;7.912;2023-06-22T13:23:30;25.20;95.50
32600;DHT22;19277;51.778;7.912;2023-06-22T13:25:57;25.50;94.80
32600;DHT22;19277;51.778;7.912;2023-06-22T13:28:23;25.60;96.10
32600;DHT22;19277;51.778;7.912;2023-06-22T13:30:48;25.50;96.50
32600;DHT22;19277;51.778;7.912;2023-06-22T13:33:14;25.30;97.20
32600;DHT22;19277;51.778;7.912;2023-06-22T13:35:40;25.20;97.70
32600;DHT22;19277;51.778;7.912;2023-06-22T13:38:08;25.10;97.30
32600;DHT22;19277;51.778;7.912;2023-06-22T13:40:34;25.00;97.50
32600;DHT22;19277;51.778;7.912;2023-06-22T13:42:59;25.00;97.20
32600;DHT22;19277;51.778;7.912;2023-06-22T13:45:26;25.10;96.00
32600;DHT22;19277;51.778;7.912;2023-06-22T13:47:52;25.30;95.90
32600;DHT22;19277;51.778;7.912;2023-06-22T13:50:17;25.40;96.20
32600;DHT22;19277;51.778;7.912;2023-06-22T13:52:43;25.40;95.50
32600;DHT22;19277;51.778;7.912;2023-06-22T13:55:09;25.50;95.80
32600;DHT22;19277;51.778;7.912;2023-06-22T13:57:35;25.50;95.20
32600;DHT22;19277;51.778;7.912;2023-06-22T14:00:01;25.60;96.00
32600;DHT22;19277;51.778;7.912;2023-06-22T14:02:29;25.50;96.40
32600;DHT22;19277;51.778;7.912;2023-06-22T14:04:54;25.30;96.60
32600;DHT22;19277;51.778;7.912;2023-06-22T14:07:20;25.30;96.80
32600;DHT22;19277;51.778;7.912;2023-06-22T14:09:46;25.00;97.20
32600;DHT22;19277;51.778;7.912;2023-06-22T14:12:12;24.70;98.30
32600;DHT22;19277;51.778;7.912;2023-06-22T14:14:38;24.60;98.70
32600;DHT22;19277;51.778;7.912;2023-06-22T14:17:04;24.60;99.10
32600;DHT22;19277;51.778;7.912;2023-06-22T14:19:30;24.50;99.70
32600;DHT22;19277;51.778;7.912;2023-06-22T14:21:56;24.50;99.50
32600;DHT22;19277;51.778;7.912;2023-06-22T14:24:22;24.70;99.50
32600;DHT22;19277;51.778;7.912;2023-06-22T14:26:48;24.80;99.10
32600;DHT22;19277;51.778;7.912;2023-06-22T14:29:14;25.00;98.10
32600;DHT22;19277;51.778;7.912;2023-06-22T14:31:39;25.00;97.70
32600;DHT22;19277;51.778;7.912;2023-06-22T14:34:05;24.90;98.10
32600;DHT22;19277;51.778;7.912;2023-06-22T14:36:31;24.80;98.40
32600;DHT22;19277;51.778;7.912;2023-06-22T14:38:57;24.80;98.30
32600;DHT22;19277;51.778;7.912;2023-06-22T14:41:23;24.80;98.70
32600;DHT22;19277;51.778;7.912;2023-06-22T14:43:49;24.80;99.00
32600;DHT22;19277;51.778;7.912;2023-06-22T14:46:15;24.80;98.70
32600;DHT22;19277;51.778;7.912;2023-06-22T14:48:41;24.70;98.40
32600;DHT22;19277;51.778;7.912;2023-06-22T14:51:08;24.80;98.40
32600;DHT22;19277;51.778;7.912;2023-06-22T14:53:34;24.80;99.00
32600;DHT22;19277;51.778;7.912;2023-06-22T14:56:00;24.70;98.80
32600;DHT22;19277;51.778;7.912;2023-06-22T14:58:28;24.70;98.80
32600;DHT22;19277;51.778;7.912;2023-06-22T15:00:53;24.70;98.90
32600;DHT22;19277;51.778;7.912;2023-06-22T15:03:19;24.70;99.30
32600;DHT22;19277;51.778;7.912;2023-06-22T15:05:50;24.70;99.30
32600;DHT22;19277;51.778;7.912;2023-06-22T15:08:16;24.70;99.00
32600;DHT22;19277;51.778;7.912;2023-06-22T15:10:41;24.70;98.80
32600;DHT22;19277;51.778;7.912;2023-06-22T15:13:07;24.70;98.80
32600;DHT22;19277;51.778;7.912;2023-06-22T15:15:33;24.80;98.80
32600;DHT22;19277;51.778;7.912;2023-06-22T15:17:59;24.70;98.60
32600;DHT22;19277;51.778;7.912;2023-06-22T15:20:24;24.70;98.70
32600;DHT22;19277;51.778;7.912;2023-06-22T15:22:50;24.70;98.50
32600;DHT22;19277;51.778;7.912;2023-06-22T15:25:15;24.70;98.80
32600;DHT22;19277;51.778;7.912;2023-06-22T15:27:41;24.70;98.80
32600;DHT22;19277;51.778;7.912;2023-06-22T15:30:07;24.70;99.10